Arcanum, OH

4:59 PM EDT on August 30, 2016 (GMT -0400)
Franklin-Monroe | | Change Station

Elev 1050 ft 39.95 °N, 84.45 °W | Updated 13 minutes ago

Clear
Clear
86.3 °F
Feels Like 94 °F
N
0.0
Wind Variable Wind from SSE
Gusts 6.0 mph

Today
High -- | Low -- °F
--% Chance of Precip.
Yesterday
High -- | Low -- °F
Precip. -- in
Pressure 30.07 in
Visibility 7.0 miles
Clouds Clear
Heat Index 94 °F
Dew Point 73 °F
Humidity 65%
Rainfall 0.00 in
Snow Depth Not available.
7:04 AM 8:11 PM
Waning Crescent, 2% visible
METAR KVES 302055Z AUTO 14004KT 7SM CLR 30/19 A3007 RMK AO2
Pressure 30.07 in
Visibility 7.0 miles
Clouds Clear
Heat Index 94 °F
Dew Point 73 °F
Humidity 65%
Rainfall 0.00 in
Snow Depth Not available.
7:04 AM 8:11 PM
Waning Crescent, 2% visible
METAR KVES 302055Z AUTO 14004KT 7SM CLR 30/19 A3007 RMK AO2

10-Day Weather Forecast

Almanac

Astronomy

Aug. 30, 2016 Rise Set
Actual Time
Civil Twilight
Nautical Twilight
Astronomical Twilight
Moon
Length of Visible Light
Length of Day
Tomorrow will be .
, % of the Moon is Illuminated

Today's Extremes

State Highs State Lows

Community

WunderPhotos

Upload Photos

1,935,889 photos uploaded!

WunderBlog® & News

Nearby

Air Quality

  Air Quality AQ Index Pollutant
Not available.

Snow Depth

Station Depth Elevation

Earthquake Activity

City Distance Mag. Time & Date
Minimum magnitude displayed is 2.5.

Coastal Water Temperatures

Place Temperature

Stations

Nearby Weather Stations

Station Location Temp. Windchill Dew Point Humidity Wind Precip. Elev Updated Type
                   

Watches & Warnings

There are currently no watches in effect.